sensor_id;sensor_type;location;lat;lon;timestamp;temperature;humidity
21734;DHT22;11029;47.820;10.534;2022-10-30T00:02:23;9.70;75.70
21734;DHT22;11029;47.820;10.534;2022-10-30T00:04:50;9.70;75.40
21734;DHT22;11029;47.820;10.534;2022-10-30T00:07:16;9.80;75.50
21734;DHT22;11029;47.820;10.534;2022-10-30T00:09:43;9.70;75.00
21734;DHT22;11029;47.820;10.534;2022-10-30T00:12:10;9.70;76.20
21734;DHT22;11029;47.820;10.534;2022-10-30T00:14:36;9.70;76.00
21734;DHT22;11029;47.820;10.534;2022-10-30T00:17:03;9.80;75.70
21734;DHT22;11029;47.820;10.534;2022-10-30T00:19:30;9.80;75.30
21734;DHT22;11029;47.820;10.534;2022-10-30T00:21:56;9.80;74.90
21734;DHT22;11029;47.820;10.534;2022-10-30T00:24:23;9.80;75.10
21734;DHT22;11029;47.820;10.534;2022-10-30T00:26:49;9.80;74.40
21734;DHT22;11029;47.820;10.534;2022-10-30T00:29:16;9.70;74.30
21734;DHT22;11029;47.820;10.534;2022-10-30T00:31:43;9.60;75.20
21734;DHT22;11029;47.820;10.534;2022-10-30T00:34:09;9.60;74.90
21734;DHT22;11029;47.820;10.534;2022-10-30T00:36:36;9.50;75.00
21734;DHT22;11029;47.820;10.534;2022-10-30T00:39:03;9.50;75.00
21734;DHT22;11029;47.820;10.534;2022-10-30T00:41:31;9.50;75.30
21734;DHT22;11029;47.820;10.534;2022-10-30T00:43:57;9.50;75.20
21734;DHT22;11029;47.820;10.534;2022-10-30T00:49:01;9.50;75.00
21734;DHT22;11029;47.820;10.534;2022-10-30T00:51:29;9.50;75.10
21734;DHT22;11029;47.820;10.534;2022-10-30T00:53:58;9.50;75.00
21734;DHT22;11029;47.820;10.534;2022-10-30T00:56:28;9.50;74.80
21734;DHT22;11029;47.820;10.534;2022-10-30T00:59:06;9.50;75.10
21734;DHT22;11029;47.820;10.534;2022-10-30T01:01:36;9.50;74.90
21734;DHT22;11029;47.820;10.534;2022-10-30T01:04:05;9.40;74.50
21734;DHT22;11029;47.820;10.534;2022-10-30T01:06:36;9.30;75.30
21734;DHT22;11029;47.820;10.534;2022-10-30T01:09:05;9.30;75.20
21734;DHT22;11029;47.820;10.534;2022-10-30T01:11:33;9.30;74.80
21734;DHT22;11029;47.820;10.534;2022-10-30T01:14:06;9.30;75.40
21734;DHT22;11029;47.820;10.534;2022-10-30T01:24:27;9.10;75.50
21734;DHT22;11029;47.820;10.534;2022-10-30T01:38:20;9.10;74.80
21734;DHT22;11029;47.820;10.534;2022-10-30T01:40:51;9.10;75.10
21734;DHT22;11029;47.820;10.534;2022-10-30T01:43:18;9.10;75.10
21734;DHT22;11029;47.820;10.534;2022-10-30T01:46:16;9.00;75.30
21734;DHT22;11029;47.820;10.534;2022-10-30T01:54:37;9.10;75.80
21734;DHT22;11029;47.820;10.534;2022-10-30T01:57:17;9.10;75.20
21734;DHT22;11029;47.820;10.534;2022-10-30T02:00:02;9.10;74.90
21734;DHT22;11029;47.820;10.534;2022-10-30T02:02:38;9.10;75.00
21734;DHT22;11029;47.820;10.534;2022-10-30T02:05:09;9.10;75.40
21734;DHT22;11029;47.820;10.534;2022-10-30T02:07:37;9.00;75.60
21734;DHT22;11029;47.820;10.534;2022-10-30T02:10:06;9.00;75.30
21734;DHT22;11029;47.820;10.534;2022-10-30T02:12:33;9.00;75.40
21734;DHT22;11029;47.820;10.534;2022-10-30T02:15:00;8.90;75.00
21734;DHT22;11029;47.820;10.534;2022-10-30T02:17:27;8.90;75.90
21734;DHT22;11029;47.820;10.534;2022-10-30T02:19:54;9.00;74.40
21734;DHT22;11029;47.820;10.534;2022-10-30T02:22:22;8.90;74.60
21734;DHT22;11029;47.820;10.534;2022-10-30T02:24:50;8.90;75.20
21734;DHT22;11029;47.820;10.534;2022-10-30T02:27:20;8.80;74.70
21734;DHT22;11029;47.820;10.534;2022-10-30T02:29:46;8.80;75.10
21734;DHT22;11029;47.820;10.534;2022-10-30T02:32:14;8.80;76.20
21734;DHT22;11029;47.820;10.534;2022-10-30T02:34:43;8.80;75.20
21734;DHT22;11029;47.820;10.534;2022-10-30T02:37:09;8.80;75.00
21734;DHT22;11029;47.820;10.534;2022-10-30T02:39:37;8.70;74.80
21734;DHT22;11029;47.820;10.534;2022-10-30T02:42:04;8.70;75.40
21734;DHT22;11029;47.820;10.534;2022-10-30T02:44:31;8.70;74.90
21734;DHT22;11029;47.820;10.534;2022-10-30T02:46:58;8.60;75.10
21734;DHT22;11029;47.820;10.534;2022-10-30T02:49:25;8.60;75.50
21734;DHT22;11029;47.820;10.534;2022-10-30T02:51:52;8.60;75.30
21734;DHT22;11029;47.820;10.534;2022-10-30T02:54:19;8.60;75.40
21734;DHT22;11029;47.820;10.534;2022-10-30T02:56:47;8.60;74.90
21734;DHT22;11029;47.820;10.534;2022-10-30T02:59:14;8.50;75.50
21734;DHT22;11029;47.820;10.534;2022-10-30T03:01:41;8.50;75.60
21734;DHT22;11029;47.820;10.534;2022-10-30T03:04:08;8.60;75.20
21734;DHT22;11029;47.820;10.534;2022-10-30T03:06:34;8.60;74.90
21734;DHT22;11029;47.820;10.534;2022-10-30T03:09:01;8.50;75.60
21734;DHT22;11029;47.820;10.534;2022-10-30T03:11:28;8.50;76.00
21734;DHT22;11029;47.820;10.534;2022-10-30T03:13:55;8.50;75.30
21734;DHT22;11029;47.820;10.534;2022-10-30T03:16:24;8.50;75.80
21734;DHT22;11029;47.820;10.534;2022-10-30T03:18:51;8.60;74.50
21734;DHT22;11029;47.820;10.534;2022-10-30T03:21:20;8.60;73.40
21734;DHT22;11029;47.820;10.534;2022-10-30T03:23:48;8.50;73.80
21734;DHT22;11029;47.820;10.534;2022-10-30T03:26:18;8.40;74.90
21734;DHT22;11029;47.820;10.534;2022-10-30T03:28:51;8.30;75.40
21734;DHT22;11029;47.820;10.534;2022-10-30T03:31:18;8.30;75.80
21734;DHT22;11029;47.820;10.534;2022-10-30T03:33:50;8.30;75.30
21734;DHT22;11029;47.820;10.534;2022-10-30T03:36:17;8.30;75.50
21734;DHT22;11029;47.820;10.534;2022-10-30T03:38:44;8.20;75.20
21734;DHT22;11029;47.820;10.534;2022-10-30T03:41:14;8.30;75.30
21734;DHT22;11029;47.820;10.534;2022-10-30T03:43:43;8.30;74.30
21734;DHT22;11029;47.820;10.534;2022-10-30T03:46:10;8.30;74.80
21734;DHT22;11029;47.820;10.534;2022-10-30T03:48:37;8.30;74.30
21734;DHT22;11029;47.820;10.534;2022-10-30T03:51:04;8.20;75.60
21734;DHT22;11029;47.820;10.534;2022-10-30T03:53:30;8.30;75.00
21734;DHT22;11029;47.820;10.534;2022-10-30T03:55:59;8.40;74.80
21734;DHT22;11029;47.820;10.534;2022-10-30T03:58:34;8.40;74.40
21734;DHT22;11029;47.820;10.534;2022-10-30T04:01:03;8.30;74.10
21734;DHT22;11029;47.820;10.534;2022-10-30T04:03:34;8.30;73.90
21734;DHT22;11029;47.820;10.534;2022-10-30T04:06:00;8.20;73.90
21734;DHT22;11029;47.820;10.534;2022-10-30T04:08:28;8.20;74.80
21734;DHT22;11029;47.820;10.534;2022-10-30T04:10:55;8.20;74.20
21734;DHT22;11029;47.820;10.534;2022-10-30T04:13:22;8.20;74.70
21734;DHT22;11029;47.820;10.534;2022-10-30T04:15:51;8.20;74.10
21734;DHT22;11029;47.820;10.534;2022-10-30T04:18:24;8.20;74.40
21734;DHT22;11029;47.820;10.534;2022-10-30T04:20:51;8.20;74.20
21734;DHT22;11029;47.820;10.534;2022-10-30T04:23:19;8.10;74.70
21734;DHT22;11029;47.820;10.534;2022-10-30T04:25:47;8.00;75.10
21734;DHT22;11029;47.820;10.534;2022-10-30T04:28:14;8.00;75.40
21734;DHT22;11029;47.820;10.534;2022-10-30T04:30:41;8.00;75.80
21734;DHT22;11029;47.820;10.534;2022-10-30T04:33:12;8.10;76.00
21734;DHT22;11029;47.820;10.534;2022-10-30T04:35:40;8.10;76.30
21734;DHT22;11029;47.820;10.534;2022-10-30T04:38:13;8.10;76.10
21734;DHT22;11029;47.820;10.534;2022-10-30T04:40:42;8.00;77.30
21734;DHT22;11029;47.820;10.534;2022-10-30T04:43:11;8.10;76.50
21734;DHT22;11029;47.820;10.534;2022-10-30T04:45:40;8.10;76.40
21734;DHT22;11029;47.820;10.534;2022-10-30T04:48:17;8.10;76.30
21734;DHT22;11029;47.820;10.534;2022-10-30T04:50:46;8.10;76.20
21734;DHT22;11029;47.820;10.534;2022-10-30T04:53:20;8.10;75.50
21734;DHT22;11029;47.820;10.534;2022-10-30T04:55:54;8.10;75.50
21734;DHT22;11029;47.820;10.534;2022-10-30T04:58:21;8.10;76.00
21734;DHT22;11029;47.820;10.534;2022-10-30T05:01:04;8.10;76.30
21734;DHT22;11029;47.820;10.534;2022-10-30T05:03:33;8.00;75.50
21734;DHT22;11029;47.820;10.534;2022-10-30T05:06:06;8.10;75.90
21734;DHT22;11029;47.820;10.534;2022-10-30T05:08:33;8.00;76.20
21734;DHT22;11029;47.820;10.534;2022-10-30T05:11:07;8.00;75.60
21734;DHT22;11029;47.820;10.534;2022-10-30T05:13:34;8.00;75.60
21734;DHT22;11029;47.820;10.534;2022-10-30T05:16:01;7.90;75.90
21734;DHT22;11029;47.820;10.534;2022-10-30T05:18:28;7.90;75.80
21734;DHT22;11029;47.820;10.534;2022-10-30T05:20:55;7.90;75.80
21734;DHT22;11029;47.820;10.534;2022-10-30T05:23:22;8.00;76.60
21734;DHT22;11029;47.820;10.534;2022-10-30T05:25:48;8.00;75.10
21734;DHT22;11029;47.820;10.534;2022-10-30T05:28:15;8.00;75.00
21734;DHT22;11029;47.820;10.534;2022-10-30T05:30:51;8.00;74.80
21734;DHT22;11029;47.820;10.534;2022-10-30T05:33:41;8.00;75.00
21734;DHT22;11029;47.820;10.534;2022-10-30T05:36:08;8.00;76.00
21734;DHT22;11029;47.820;10.534;2022-10-30T05:38:35;8.00;75.70
21734;DHT22;11029;47.820;10.534;2022-10-30T05:41:05;8.00;75.80
21734;DHT22;11029;47.820;10.534;2022-10-30T05:43:32;8.00;74.80
21734;DHT22;11029;47.820;10.534;2022-10-30T05:45:58;7.90;75.90
21734;DHT22;11029;47.820;10.534;2022-10-30T05:48:26;7.80;75.80
21734;DHT22;11029;47.820;10.534;2022-10-30T05:50:57;7.90;76.30
21734;DHT22;11029;47.820;10.534;2022-10-30T05:53:27;7.90;76.20
21734;DHT22;11029;47.820;10.534;2022-10-30T05:55:56;7.90;76.20
21734;DHT22;11029;47.820;10.534;2022-10-30T05:58:24;7.80;76.40
21734;DHT22;11029;47.820;10.534;2022-10-30T06:00:53;7.80;76.10
21734;DHT22;11029;47.820;10.534;2022-10-30T06:03:34;7.70;76.70
21734;DHT22;11029;47.820;10.534;2022-10-30T06:06:01;7.70;76.30
21734;DHT22;11029;47.820;10.534;2022-10-30T06:08:28;7.70;77.20
21734;DHT22;11029;47.820;10.534;2022-10-30T06:10:57;7.70;77.30
21734;DHT22;11029;47.820;10.534;2022-10-30T06:13:31;7.70;77.40
21734;DHT22;11029;47.820;10.534;2022-10-30T06:16:01;7.70;77.60
21734;DHT22;11029;47.820;10.534;2022-10-30T06:18:45;7.70;77.20
21734;DHT22;11029;47.820;10.534;2022-10-30T06:21:12;7.70;76.30
21734;DHT22;11029;47.820;10.534;2022-10-30T06:23:50;7.70;76.00
21734;DHT22;11029;47.820;10.534;2022-10-30T06:26:29;7.70;76.30
21734;DHT22;11029;47.820;10.534;2022-10-30T06:29:01;7.70;76.40
21734;DHT22;11029;47.820;10.534;2022-10-30T06:31:29;7.80;76.60
21734;DHT22;11029;47.820;10.534;2022-10-30T06:33:58;7.90;76.00
21734;DHT22;11029;47.820;10.534;2022-10-30T06:36:25;7.90;75.60
21734;DHT22;11029;47.820;10.534;2022-10-30T06:38:52;7.80;76.50
21734;DHT22;11029;47.820;10.534;2022-10-30T06:41:22;7.80;76.10
21734;DHT22;11029;47.820;10.534;2022-10-30T06:44:04;7.80;76.40
21734;DHT22;11029;47.820;10.534;2022-10-30T06:46:33;7.80;77.10
21734;DHT22;11029;47.820;10.534;2022-10-30T06:49:00;7.90;77.00
21734;DHT22;11029;47.820;10.534;2022-10-30T06:51:27;8.00;76.60
21734;DHT22;11029;47.820;10.534;2022-10-30T06:53:56;8.20;76.10
21734;DHT22;11029;47.820;10.534;2022-10-30T06:56:49;8.20;76.30
21734;DHT22;11029;47.820;10.534;2022-10-30T06:59:17;8.30;75.80
21734;DHT22;11029;47.820;10.534;2022-10-30T07:01:50;8.30;76.20
21734;DHT22;11029;47.820;10.534;2022-10-30T07:04:23;8.50;76.10
21734;DHT22;11029;47.820;10.534;2022-10-30T07:06:50;8.70;75.30
21734;DHT22;11029;47.820;10.534;2022-10-30T07:09:19;8.80;74.80
21734;DHT22;11029;47.820;10.534;2022-10-30T07:11:47;8.90;75.20
21734;DHT22;11029;47.820;10.534;2022-10-30T07:14:27;8.90;75.40
21734;DHT22;11029;47.820;10.534;2022-10-30T07:17:04;9.00;75.50
21734;DHT22;11029;47.820;10.534;2022-10-30T07:19:31;9.10;75.50
21734;DHT22;11029;47.820;10.534;2022-10-30T07:21:59;9.30;75.10
21734;DHT22;11029;47.820;10.534;2022-10-30T07:24:27;9.40;74.80
21734;DHT22;11029;47.820;10.534;2022-10-30T07:27:14;9.60;74.80
21734;DHT22;11029;47.820;10.534;2022-10-30T07:29:46;10.00;73.90
21734;DHT22;11029;47.820;10.534;2022-10-30T07:32:22;10.20;72.80
21734;DHT22;11029;47.820;10.534;2022-10-30T07:35:10;10.40;72.10
21734;DHT22;11029;47.820;10.534;2022-10-30T07:38:09;10.50;71.50
21734;DHT22;11029;47.820;10.534;2022-10-30T07:40:51;10.70;71.40
21734;DHT22;11029;47.820;10.534;2022-10-30T07:43:37;10.90;71.10
21734;DHT22;11029;47.820;10.534;2022-10-30T07:46:22;11.10;70.80
21734;DHT22;11029;47.820;10.534;2022-10-30T07:49:20;11.10;70.60
21734;DHT22;11029;47.820;10.534;2022-10-30T07:51:48;11.30;70.00
21734;DHT22;11029;47.820;10.534;2022-10-30T07:54:16;11.40;70.60
21734;DHT22;11029;47.820;10.534;2022-10-30T07:56:42;11.50;70.80
21734;DHT22;11029;47.820;10.534;2022-10-30T07:59:47;11.40;72.60
21734;DHT22;11029;47.820;10.534;2022-10-30T08:02:38;11.50;72.40
21734;DHT22;11029;47.820;10.534;2022-10-30T08:05:24;11.70;71.50
21734;DHT22;11029;47.820;10.534;2022-10-30T08:08:07;11.90;71.70
21734;DHT22;11029;47.820;10.534;2022-10-30T08:10:35;12.20;70.80
21734;DHT22;11029;47.820;10.534;2022-10-30T08:13:02;12.40;69.80
21734;DHT22;11029;47.820;10.534;2022-10-30T08:15:29;12.60;69.30
21734;DHT22;11029;47.820;10.534;2022-10-30T08:17:56;12.80;68.60
21734;DHT22;11029;47.820;10.534;2022-10-30T08:20:24;13.00;67.50
21734;DHT22;11029;47.820;10.534;2022-10-30T08:22:56;13.20;67.10
21734;DHT22;11029;47.820;10.534;2022-10-30T08:25:26;13.40;66.90
21734;DHT22;11029;47.820;10.534;2022-10-30T08:28:03;13.60;66.80
21734;DHT22;11029;47.820;10.534;2022-10-30T08:30:35;13.80;66.50
21734;DHT22;11029;47.820;10.534;2022-10-30T08:33:06;13.90;66.10
21734;DHT22;11029;47.820;10.534;2022-10-30T08:35:57;14.10;66.10
21734;DHT22;11029;47.820;10.534;2022-10-30T08:38:26;14.20;65.60
21734;DHT22;11029;47.820;10.534;2022-10-30T08:41:05;14.30;65.90
21734;DHT22;11029;47.820;10.534;2022-10-30T08:43:36;14.50;65.40
21734;DHT22;11029;47.820;10.534;2022-10-30T08:46:04;14.60;65.80
21734;DHT22;11029;47.820;10.534;2022-10-30T08:48:31;14.90;65.70
21734;DHT22;11029;47.820;10.534;2022-10-30T08:50:58;15.00;65.30
21734;DHT22;11029;47.820;10.534;2022-10-30T08:53:32;15.10;65.30
21734;DHT22;11029;47.820;10.534;2022-10-30T08:56:00;15.20;65.00
21734;DHT22;11029;47.820;10.534;2022-10-30T08:58:50;15.10;65.00
21734;DHT22;11029;47.820;10.534;2022-10-30T09:01:17;15.10;65.60
21734;DHT22;11029;47.820;10.534;2022-10-30T09:04:03;15.10;66.10
21734;DHT22;11029;47.820;10.534;2022-10-30T09:06:45;15.10;66.10
21734;DHT22;11029;47.820;10.534;2022-10-30T09:09:35;15.20;65.80
21734;DHT22;11029;47.820;10.534;2022-10-30T09:12:03;15.30;65.70
21734;DHT22;11029;47.820;10.534;2022-10-30T09:14:37;15.40;65.50
21734;DHT22;11029;47.820;10.534;2022-10-30T09:17:06;15.50;65.70
21734;DHT22;11029;47.820;10.534;2022-10-30T09:19:35;15.80;65.80
21734;DHT22;11029;47.820;10.534;2022-10-30T09:22:01;16.00;64.80
21734;DHT22;11029;47.820;10.534;2022-10-30T09:24:29;16.30;64.20
21734;DHT22;11029;47.820;10.534;2022-10-30T09:27:15;16.50;63.60
21734;DHT22;11029;47.820;10.534;2022-10-30T09:29:47;16.70;63.10
21734;DHT22;11029;47.820;10.534;2022-10-30T09:32:20;16.80;62.50
21734;DHT22;11029;47.820;10.534;2022-10-30T09:34:53;16.80;62.00
21734;DHT22;11029;47.820;10.534;2022-10-30T09:37:23;16.80;62.20
21734;DHT22;11029;47.820;10.534;2022-10-30T09:39:53;16.90;62.00
21734;DHT22;11029;47.820;10.534;2022-10-30T09:42:43;17.00;61.80
21734;DHT22;11029;47.820;10.534;2022-10-30T09:45:47;17.10;61.80
21734;DHT22;11029;47.820;10.534;2022-10-30T09:48:46;17.20;61.90
21734;DHT22;11029;47.820;10.534;2022-10-30T09:54:16;17.30;60.40
21734;DHT22;11029;47.820;10.534;2022-10-30T09:57:26;17.40;60.50
21734;DHT22;11029;47.820;10.534;2022-10-30T10:03:08;17.70;59.30
21734;DHT22;11029;47.820;10.534;2022-10-30T10:06:01;17.80;58.30
21734;DHT22;11029;47.820;10.534;2022-10-30T10:11:55;18.10;58.40
21734;DHT22;11029;47.820;10.534;2022-10-30T10:14:27;18.30;58.70
21734;DHT22;11029;47.820;10.534;2022-10-30T10:16:55;18.40;56.30
21734;DHT22;11029;47.820;10.534;2022-10-30T10:19:54;18.50;55.20
21734;DHT22;11029;47.820;10.534;2022-10-30T10:22:27;18.70;55.50
21734;DHT22;11029;47.820;10.534;2022-10-30T10:24:56;18.80;56.30
21734;DHT22;11029;47.820;10.534;2022-10-30T10:27:52;18.90;55.70
21734;DHT22;11029;47.820;10.534;2022-10-30T10:30:23;19.00;55.50
21734;DHT22;11029;47.820;10.534;2022-10-30T10:38:35;19.40;55.50
21734;DHT22;11029;47.820;10.534;2022-10-30T10:41:18;19.50;55.60
21734;DHT22;11029;47.820;10.534;2022-10-30T10:46:47;19.80;54.60
21734;DHT22;11029;47.820;10.534;2022-10-30T10:52:01;19.80;53.30
21734;DHT22;11029;47.820;10.534;2022-10-30T10:54:34;20.00;52.80
21734;DHT22;11029;47.820;10.534;2022-10-30T10:57:04;20.10;52.30
21734;DHT22;11029;47.820;10.534;2022-10-30T10:59:45;20.20;51.20
21734;DHT22;11029;47.820;10.534;2022-10-30T11:04:49;20.30;50.60
21734;DHT22;11029;47.820;10.534;2022-10-30T11:07:27;20.40;49.90
21734;DHT22;11029;47.820;10.534;2022-10-30T11:09:56;20.50;49.10
21734;DHT22;11029;47.820;10.534;2022-10-30T11:12:32;20.60;48.20
21734;DHT22;11029;47.820;10.534;2022-10-30T11:18:09;20.60;47.70
21734;DHT22;11029;47.820;10.534;2022-10-30T11:21:06;20.70;48.50
21734;DHT22;11029;47.820;10.534;2022-10-30T11:23:36;20.80;48.70
21734;DHT22;11029;47.820;10.534;2022-10-30T11:26:30;20.80;48.80
21734;DHT22;11029;47.820;10.534;2022-10-30T11:31:38;20.90;48.20
21734;DHT22;11029;47.820;10.534;2022-10-30T11:36:48;20.80;48.80
21734;DHT22;11029;47.820;10.534;2022-10-30T11:39:34;20.80;48.80
21734;DHT22;11029;47.820;10.534;2022-10-30T11:42:13;20.70;48.30
21734;DHT22;11029;47.820;10.534;2022-10-30T11:44:48;20.70;49.10
21734;DHT22;11029;47.820;10.534;2022-10-30T11:47:18;20.80;49.00
21734;DHT22;11029;47.820;10.534;2022-10-30T11:49:50;20.90;48.50
21734;DHT22;11029;47.820;10.534;2022-10-30T11:52:20;21.00;47.70
21734;DHT22;11029;47.820;10.534;2022-10-30T11:54:50;21.00;48.30
21734;DHT22;11029;47.820;10.534;2022-10-30T11:59:47;21.30;47.20
21734;DHT22;11029;47.820;10.534;2022-10-30T12:02:25;21.40;47.00
21734;DHT22;11029;47.820;10.534;2022-10-30T12:04:53;21.50;46.40
21734;DHT22;11029;47.820;10.534;2022-10-30T12:07:29;21.70;45.90
21734;DHT22;11029;47.820;10.534;2022-10-30T12:09:56;21.70;45.40
21734;DHT22;11029;47.820;10.534;2022-10-30T12:12:31;21.60;45.20
21734;DHT22;11029;47.820;10.534;2022-10-30T12:15:31;21.60;44.60
21734;DHT22;11029;47.820;10.534;2022-10-30T12:18:04;21.70;44.20
21734;DHT22;11029;47.820;10.534;2022-10-30T12:20:32;21.90;43.50
21734;DHT22;11029;47.820;10.534;2022-10-30T12:23:34;22.00;43.50
21734;DHT22;11029;47.820;10.534;2022-10-30T12:26:08;22.30;44.00
21734;DHT22;11029;47.820;10.534;2022-10-30T12:28:37;22.40;45.20
21734;DHT22;11029;47.820;10.534;2022-10-30T12:31:18;22.60;44.30
21734;DHT22;11029;47.820;10.534;2022-10-30T12:33:57;22.80;42.70
21734;DHT22;11029;47.820;10.534;2022-10-30T12:36:34;22.80;42.60
21734;DHT22;11029;47.820;10.534;2022-10-30T12:39:27;22.80;42.80
21734;DHT22;11029;47.820;10.534;2022-10-30T12:41:57;22.90;43.40
21734;DHT22;11029;47.820;10.534;2022-10-30T12:44:35;22.90;43.70
21734;DHT22;11029;47.820;10.534;2022-10-30T12:50:00;22.80;43.90
21734;DHT22;11029;47.820;10.534;2022-10-30T12:52:34;22.80;43.50
21734;DHT22;11029;47.820;10.534;2022-10-30T12:57:45;22.80;44.00
21734;DHT22;11029;47.820;10.534;2022-10-30T13:00:15;22.80;44.60
21734;DHT22;11029;47.820;10.534;2022-10-30T13:05:34;22.80;43.30
21734;DHT22;11029;47.820;10.534;2022-10-30T13:11:48;22.60;44.40
21734;DHT22;11029;47.820;10.534;2022-10-30T13:13:50;22.50;44.10
21734;DHT22;11029;47.820;10.534;2022-10-30T13:16:27;22.40;47.70
21734;DHT22;11029;47.820;10.534;2022-10-30T13:18:57;22.30;49.10
21734;DHT22;11029;47.820;10.534;2022-10-30T13:25:09;22.20;48.10
21734;DHT22;11029;47.820;10.534;2022-10-30T13:27:51;22.30;48.20
21734;DHT22;11029;47.820;10.534;2022-10-30T13:30:21;22.60;48.20
21734;DHT22;11029;47.820;10.534;2022-10-30T13:33:16;23.00;47.90
21734;DHT22;11029;47.820;10.534;2022-10-30T13:36:13;23.40;47.00
21734;DHT22;11029;47.820;10.534;2022-10-30T13:46:57;24.20;44.70
21734;DHT22;11029;47.820;10.534;2022-10-30T13:52:18;24.10;45.20
21734;DHT22;11029;47.820;10.534;2022-10-30T13:54:56;25.40;45.10
21734;DHT22;11029;47.820;10.534;2022-10-30T13:57:31;27.60;42.50
21734;DHT22;11029;47.820;10.534;2022-10-30T14:00:15;29.50;39.10
21734;DHT22;11029;47.820;10.534;2022-10-30T14:05:36;31.00;35.40
21734;DHT22;11029;47.820;10.534;2022-10-30T14:08:19;31.10;33.60
21734;DHT22;11029;47.820;10.534;2022-10-30T14:10:53;30.50;34.10
21734;DHT22;11029;47.820;10.534;2022-10-30T14:19:03;28.00;39.80
21734;DHT22;11029;47.820;10.534;2022-10-30T14:21:49;27.90;40.80
21734;DHT22;11029;47.820;10.534;2022-10-30T14:24:42;28.60;39.50
21734;DHT22;11029;47.820;10.534;2022-10-30T14:27:18;29.90;37.40
21734;DHT22;11029;47.820;10.534;2022-10-30T14:29:48;31.10;35.70
21734;DHT22;11029;47.820;10.534;2022-10-30T14:34:56;32.20;32.90
21734;DHT22;11029;47.820;10.534;2022-10-30T14:39:54;31.70;35.40
21734;DHT22;11029;47.820;10.534;2022-10-30T14:45:13;31.10;36.10
21734;DHT22;11029;47.820;10.534;2022-10-30T14:50:51;31.40;36.60
21734;DHT22;11029;47.820;10.534;2022-10-30T15:04:21;29.50;39.10
21734;DHT22;11029;47.820;10.534;2022-10-30T15:07:11;28.90;38.70
21734;DHT22;11029;47.820;10.534;2022-10-30T15:10:04;28.50;39.60
21734;DHT22;11029;47.820;10.534;2022-10-30T15:12:36;28.20;40.80
21734;DHT22;11029;47.820;10.534;2022-10-30T15:15:14;27.60;42.00
21734;DHT22;11029;47.820;10.534;2022-10-30T15:17:44;27.00;43.00
21734;DHT22;11029;47.820;10.534;2022-10-30T15:20:32;25.90;44.70
21734;DHT22;11029;47.820;10.534;2022-10-30T15:26:04;24.10;48.60
21734;DHT22;11029;47.820;10.534;2022-10-30T15:28:36;23.10;51.40
21734;DHT22;11029;47.820;10.534;2022-10-30T15:31:06;22.40;52.50
21734;DHT22;11029;47.820;10.534;2022-10-30T15:33:36;21.80;52.50
21734;DHT22;11029;47.820;10.534;2022-10-30T15:36:04;21.40;54.50
21734;DHT22;11029;47.820;10.534;2022-10-30T15:38:31;20.90;55.40
21734;DHT22;11029;47.820;10.534;2022-10-30T15:41:00;20.60;56.70
21734;DHT22;11029;47.820;10.534;2022-10-30T15:43:33;20.30;57.70
21734;DHT22;11029;47.820;10.534;2022-10-30T15:46:02;19.80;59.60
21734;DHT22;11029;47.820;10.534;2022-10-30T15:48:34;19.60;60.70
21734;DHT22;11029;47.820;10.534;2022-10-30T15:51:03;19.30;61.50
21734;DHT22;11029;47.820;10.534;2022-10-30T15:54:03;19.20;62.40
21734;DHT22;11029;47.820;10.534;2022-10-30T15:56:57;19.00;63.20
21734;DHT22;11029;47.820;10.534;2022-10-30T15:59:54;18.80;63.50
21734;DHT22;11029;47.820;10.534;2022-10-30T16:02:23;18.50;63.70
21734;DHT22;11029;47.820;10.534;2022-10-30T16:04:52;18.30;63.60
21734;DHT22;11029;47.820;10.534;2022-10-30T16:07:21;18.20;64.10
21734;DHT22;11029;47.820;10.534;2022-10-30T16:09:57;17.90;65.00
21734;DHT22;11029;47.820;10.534;2022-10-30T16:12:25;17.70;65.40
21734;DHT22;11029;47.820;10.534;2022-10-30T16:14:56;17.50;66.10
21734;DHT22;11029;47.820;10.534;2022-10-30T16:17:24;17.40;65.50
21734;DHT22;11029;47.820;10.534;2022-10-30T16:19:55;17.30;65.60
21734;DHT22;11029;47.820;10.534;2022-10-30T16:22:32;17.10;65.20
21734;DHT22;11029;47.820;10.534;2022-10-30T16:24:59;16.80;66.40
21734;DHT22;11029;47.820;10.534;2022-10-30T16:27:26;16.70;67.30
21734;DHT22;11029;47.820;10.534;2022-10-30T16:29:57;16.70;66.70
21734;DHT22;11029;47.820;10.534;2022-10-30T16:32:30;16.50;66.60
21734;DHT22;11029;47.820;10.534;2022-10-30T16:34:59;16.30;66.70
21734;DHT22;11029;47.820;10.534;2022-10-30T16:37:32;16.10;67.30
21734;DHT22;11029;47.820;10.534;2022-10-30T16:40:13;15.90;68.10
21734;DHT22;11029;47.820;10.534;2022-10-30T16:42:40;15.80;67.90
21734;DHT22;11029;47.820;10.534;2022-10-30T16:47:59;15.50;67.20
21734;DHT22;11029;47.820;10.534;2022-10-30T16:50:36;15.30;68.40
21734;DHT22;11029;47.820;10.534;2022-10-30T16:53:12;15.30;68.50
21734;DHT22;11029;47.820;10.534;2022-10-30T16:55:40;15.20;68.40
21734;DHT22;11029;47.820;10.534;2022-10-30T16:58:12;15.00;69.40
21734;DHT22;11029;47.820;10.534;2022-10-30T17:00:40;14.90;68.50
21734;DHT22;11029;47.820;10.534;2022-10-30T17:03:13;14.80;69.10
21734;DHT22;11029;47.820;10.534;2022-10-30T17:05:40;14.60;68.80
21734;DHT22;11029;47.820;10.534;2022-10-30T17:10:44;14.50;69.60
21734;DHT22;11029;47.820;10.534;2022-10-30T17:16:26;14.40;69.70
21734;DHT22;11029;47.820;10.534;2022-10-30T17:18:55;14.30;69.90
21734;DHT22;11029;47.820;10.534;2022-10-30T17:21:47;14.20;69.60
21734;DHT22;11029;47.820;10.534;2022-10-30T17:24:18;14.00;70.90
21734;DHT22;11029;47.820;10.534;2022-10-30T17:26:57;14.10;70.80
21734;DHT22;11029;47.820;10.534;2022-10-30T17:32:05;14.00;69.30
21734;DHT22;11029;47.820;10.534;2022-10-30T17:34:38;14.00;69.30
21734;DHT22;11029;47.820;10.534;2022-10-30T17:37:04;13.80;69.60
21734;DHT22;11029;47.820;10.534;2022-10-30T17:39:31;13.70;70.30
21734;DHT22;11029;47.820;10.534;2022-10-30T17:41:58;13.60;70.40
21734;DHT22;11029;47.820;10.534;2022-10-30T17:44:25;13.60;70.50
21734;DHT22;11029;47.820;10.534;2022-10-30T17:46:52;13.50;70.20
21734;DHT22;11029;47.820;10.534;2022-10-30T17:49:30;13.40;70.90
21734;DHT22;11029;47.820;10.534;2022-10-30T17:51:58;13.40;70.80
21734;DHT22;11029;47.820;10.534;2022-10-30T17:54:25;13.30;71.20
21734;DHT22;11029;47.820;10.534;2022-10-30T17:56:51;13.30;70.50
21734;DHT22;11029;47.820;10.534;2022-10-30T17:59:18;13.20;70.70
21734;DHT22;11029;47.820;10.534;2022-10-30T18:01:45;13.10;70.80
21734;DHT22;11029;47.820;10.534;2022-10-30T18:04:16;13.00;71.70
21734;DHT22;11029;47.820;10.534;2022-10-30T18:06:47;12.90;71.90
21734;DHT22;11029;47.820;10.534;2022-10-30T18:09:14;12.90;72.20
21734;DHT22;11029;47.820;10.534;2022-10-30T18:11:40;12.80;71.50